Eaton, Colorado
Current Conditions -  °F | °C
As of 5:35 PM on Friday 21 Nov 2014 (Local Time) from KGXY Reporting Station
Clear Clear  
Wind Chill:   Ceiling: Unl
Heat Index:   Visibility: 10mi
Dew Point: -8°   Wind: 0mph
Humidity: 42%   Direction: NA
Pressure: 29.93"   Gusts: NA
Location:  40.53°N, 104.71°W
Report Text: KGXY 220035Z AUTO 00000KT 10SM CLR 04/M08 A2993 RMK AO1
Loading
Personal Weather Stations






























Interactive Weather Map New forecast layout! Learn more

10-Day Weather Forecast

Advertisements
Track Severe Weather on mobile